sensor_id;sensor_type;location;lat;lon;timestamp;temperature;humidity
28767;DHT22;15921;52.034;20.650;2022-07-03T00:01:37;18.50;99.90
28767;DHT22;15921;52.034;20.650;2022-07-03T00:04:03;18.60;99.90
28767;DHT22;15921;52.034;20.650;2022-07-03T00:06:30;18.60;99.90
28767;DHT22;15921;52.034;20.650;2022-07-03T00:08:57;18.60;99.90
28767;DHT22;15921;52.034;20.650;2022-07-03T00:11:23;18.60;99.90
28767;DHT22;15921;52.034;20.650;2022-07-03T00:13:49;18.50;99.90
28767;DHT22;15921;52.034;20.650;2022-07-03T00:16:14;18.50;99.90
28767;DHT22;15921;52.034;20.650;2022-07-03T00:18:40;18.60;99.90
28767;DHT22;15921;52.034;20.650;2022-07-03T00:21:07;18.50;99.90
28767;DHT22;15921;52.034;20.650;2022-07-03T00:26:11;18.40;99.90
28767;DHT22;15921;52.034;20.650;2022-07-03T00:28:38;18.30;99.90
28767;DHT22;15921;52.034;20.650;2022-07-03T00:31:04;18.30;99.90
28767;DHT22;15921;52.034;20.650;2022-07-03T00:33:30;18.30;99.90
28767;DHT22;15921;52.034;20.650;2022-07-03T00:35:58;18.30;99.90
28767;DHT22;15921;52.034;20.650;2022-07-03T00:38:24;18.30;99.90
28767;DHT22;15921;52.034;20.650;2022-07-03T00:40:49;18.30;99.90
28767;DHT22;15921;52.034;20.650;2022-07-03T00:43:16;18.30;99.90
28767;DHT22;15921;52.034;20.650;2022-07-03T00:45:44;18.30;99.90
28767;DHT22;15921;52.034;20.650;2022-07-03T00:48:10;18.30;99.90
28767;DHT22;15921;52.034;20.650;2022-07-03T00:50:38;18.30;99.90
28767;DHT22;15921;52.034;20.650;2022-07-03T00:53:09;18.20;99.90
28767;DHT22;15921;52.034;20.650;2022-07-03T00:55:35;18.20;99.90
28767;DHT22;15921;52.034;20.650;2022-07-03T00:58:02;18.20;99.90
28767;DHT22;15921;52.034;20.650;2022-07-03T01:00:27;18.10;99.90
28767;DHT22;15921;52.034;20.650;2022-07-03T01:02:55;18.10;99.90
28767;DHT22;15921;52.034;20.650;2022-07-03T01:05:42;18.10;99.90
28767;DHT22;15921;52.034;20.650;2022-07-03T01:08:12;18.10;99.90
28767;DHT22;15921;52.034;20.650;2022-07-03T01:10:54;18.00;99.90
28767;DHT22;15921;52.034;20.650;2022-07-03T01:16:00;18.00;99.90
28767;DHT22;15921;52.034;20.650;2022-07-03T01:21:04;18.00;99.90
28767;DHT22;15921;52.034;20.650;2022-07-03T01:23:37;17.90;99.90
28767;DHT22;15921;52.034;20.650;2022-07-03T01:26:05;17.90;99.90
28767;DHT22;15921;52.034;20.650;2022-07-03T01:28:33;17.90;99.90
28767;DHT22;15921;52.034;20.650;2022-07-03T01:31:01;17.80;99.90
28767;DHT22;15921;52.034;20.650;2022-07-03T01:33:30;17.80;99.90
28767;DHT22;15921;52.034;20.650;2022-07-03T01:36:09;17.80;99.90
28767;DHT22;15921;52.034;20.650;2022-07-03T01:38:38;17.70;99.90
28767;DHT22;15921;52.034;20.650;2022-07-03T01:41:04;17.70;99.90
28767;DHT22;15921;52.034;20.650;2022-07-03T01:43:32;17.70;99.90
28767;DHT22;15921;52.034;20.650;2022-07-03T01:45:59;17.70;99.90
28767;DHT22;15921;52.034;20.650;2022-07-03T01:48:25;17.70;99.90
28767;DHT22;15921;52.034;20.650;2022-07-03T01:50:51;17.70;99.90
28767;DHT22;15921;52.034;20.650;2022-07-03T01:53:17;17.60;99.90
28767;DHT22;15921;52.034;20.650;2022-07-03T01:55:43;17.60;99.90
28767;DHT22;15921;52.034;20.650;2022-07-03T01:58:10;17.60;99.90
28767;DHT22;15921;52.034;20.650;2022-07-03T02:01:25;17.60;99.90
28767;DHT22;15921;52.034;20.650;2022-07-03T02:03:32;17.60;99.90
28767;DHT22;15921;52.034;20.650;2022-07-03T02:06:03;17.60;99.90
28767;DHT22;15921;52.034;20.650;2022-07-03T02:08:50;17.60;99.90
28767;DHT22;15921;52.034;20.650;2022-07-03T02:11:21;17.60;99.90
28767;DHT22;15921;52.034;20.650;2022-07-03T02:16:18;17.60;99.90
28767;DHT22;15921;52.034;20.650;2022-07-03T02:18:43;17.60;99.90
28767;DHT22;15921;52.034;20.650;2022-07-03T02:21:13;17.60;99.90
28767;DHT22;15921;52.034;20.650;2022-07-03T02:23:43;17.60;99.90
28767;DHT22;15921;52.034;20.650;2022-07-03T02:26:12;17.60;99.90
28767;DHT22;15921;52.034;20.650;2022-07-03T02:31:19;17.60;99.90
28767;DHT22;15921;52.034;20.650;2022-07-03T02:33:46;17.60;99.90
28767;DHT22;15921;52.034;20.650;2022-07-03T02:36:12;17.60;99.90
28767;DHT22;15921;52.034;20.650;2022-07-03T02:38:40;17.60;99.90
28767;DHT22;15921;52.034;20.650;2022-07-03T02:41:20;17.60;99.90
28767;DHT22;15921;52.034;20.650;2022-07-03T02:43:49;17.60;99.90
28767;DHT22;15921;52.034;20.650;2022-07-03T02:46:18;17.60;99.90
28767;DHT22;15921;52.034;20.650;2022-07-03T02:49:20;17.60;99.90
28767;DHT22;15921;52.034;20.650;2022-07-03T02:51:48;17.60;99.90
28767;DHT22;15921;52.034;20.650;2022-07-03T02:54:14;17.60;99.90
28767;DHT22;15921;52.034;20.650;2022-07-03T03:01:48;17.50;99.90
28767;DHT22;15921;52.034;20.650;2022-07-03T03:06:47;17.50;99.90
28767;DHT22;15921;52.034;20.650;2022-07-03T03:09:14;17.50;99.90
28767;DHT22;15921;52.034;20.650;2022-07-03T03:11:47;17.50;99.90
28767;DHT22;15921;52.034;20.650;2022-07-03T03:14:14;17.40;99.90
28767;DHT22;15921;52.034;20.650;2022-07-03T03:17:01;17.40;99.90
28767;DHT22;15921;52.034;20.650;2022-07-03T03:19:26;17.30;99.90
28767;DHT22;15921;52.034;20.650;2022-07-03T03:21:56;17.30;99.90
28767;DHT22;15921;52.034;20.650;2022-07-03T03:24:23;17.30;99.90
28767;DHT22;15921;52.034;20.650;2022-07-03T03:26:50;17.40;99.90
28767;DHT22;15921;52.034;20.650;2022-07-03T03:29:15;17.30;99.90
28767;DHT22;15921;52.034;20.650;2022-07-03T03:31:41;17.40;99.90
28767;DHT22;15921;52.034;20.650;2022-07-03T03:34:07;17.30;99.90
28767;DHT22;15921;52.034;20.650;2022-07-03T03:36:32;17.40;99.90
28767;DHT22;15921;52.034;20.650;2022-07-03T03:38:59;17.40;99.90
28767;DHT22;15921;52.034;20.650;2022-07-03T03:41:24;17.40;99.90
28767;DHT22;15921;52.034;20.650;2022-07-03T03:43:50;17.50;99.90
28767;DHT22;15921;52.034;20.650;2022-07-03T03:46:16;17.50;99.90
28767;DHT22;15921;52.034;20.650;2022-07-03T03:48:41;17.50;99.90
28767;DHT22;15921;52.034;20.650;2022-07-03T03:51:08;17.50;99.90
28767;DHT22;15921;52.034;20.650;2022-07-03T03:53:34;17.60;99.90
28767;DHT22;15921;52.034;20.650;2022-07-03T03:56:00;17.60;99.90
28767;DHT22;15921;52.034;20.650;2022-07-03T03:58:29;17.70;99.90
28767;DHT22;15921;52.034;20.650;2022-07-03T04:00:59;17.70;99.90
28767;DHT22;15921;52.034;20.650;2022-07-03T04:03:25;17.60;99.90
28767;DHT22;15921;52.034;20.650;2022-07-03T04:05:51;17.60;99.90
28767;DHT22;15921;52.034;20.650;2022-07-03T04:08:17;17.60;99.90
28767;DHT22;15921;52.034;20.650;2022-07-03T04:10:43;17.60;99.90
28767;DHT22;15921;52.034;20.650;2022-07-03T04:13:08;17.60;99.90
28767;DHT22;15921;52.034;20.650;2022-07-03T04:15:34;17.60;99.90
28767;DHT22;15921;52.034;20.650;2022-07-03T04:18:00;17.60;99.90
28767;DHT22;15921;52.034;20.650;2022-07-03T04:20:25;17.50;99.90
28767;DHT22;15921;52.034;20.650;2022-07-03T04:22:51;17.60;99.90
28767;DHT22;15921;52.034;20.650;2022-07-03T04:25:17;17.60;99.90
28767;DHT22;15921;52.034;20.650;2022-07-03T04:27:42;17.60;99.90
28767;DHT22;15921;52.034;20.650;2022-07-03T04:30:08;17.70;99.90
28767;DHT22;15921;52.034;20.650;2022-07-03T04:32:37;17.70;99.90
28767;DHT22;15921;52.034;20.650;2022-07-03T04:35:03;17.80;99.90
28767;DHT22;15921;52.034;20.650;2022-07-03T04:37:29;17.80;99.90
28767;DHT22;15921;52.034;20.650;2022-07-03T04:39:55;17.80;99.90
28767;DHT22;15921;52.034;20.650;2022-07-03T04:42:20;17.80;99.90
28767;DHT22;15921;52.034;20.650;2022-07-03T04:44:46;17.90;99.90
28767;DHT22;15921;52.034;20.650;2022-07-03T04:47:11;17.90;99.90
28767;DHT22;15921;52.034;20.650;2022-07-03T04:49:38;17.90;99.90
28767;DHT22;15921;52.034;20.650;2022-07-03T04:52:03;18.00;99.90
28767;DHT22;15921;52.034;20.650;2022-07-03T04:54:29;18.00;99.90
28767;DHT22;15921;52.034;20.650;2022-07-03T04:56:55;18.10;99.90
28767;DHT22;15921;52.034;20.650;2022-07-03T04:59:20;18.10;99.90
28767;DHT22;15921;52.034;20.650;2022-07-03T05:01:46;18.20;99.90
28767;DHT22;15921;52.034;20.650;2022-07-03T05:04:13;18.20;99.90
28767;DHT22;15921;52.034;20.650;2022-07-03T05:06:38;18.30;99.90
28767;DHT22;15921;52.034;20.650;2022-07-03T05:09:04;18.40;99.90
28767;DHT22;15921;52.034;20.650;2022-07-03T05:11:30;18.40;99.90
28767;DHT22;15921;52.034;20.650;2022-07-03T05:13:55;18.50;99.90
28767;DHT22;15921;52.034;20.650;2022-07-03T05:16:21;18.60;99.90
28767;DHT22;15921;52.034;20.650;2022-07-03T05:18:46;18.60;99.90
28767;DHT22;15921;52.034;20.650;2022-07-03T05:21:12;18.60;99.90
28767;DHT22;15921;52.034;20.650;2022-07-03T05:23:37;18.60;99.90
28767;DHT22;15921;52.034;20.650;2022-07-03T05:26:03;18.70;99.90
28767;DHT22;15921;52.034;20.650;2022-07-03T05:28:29;18.80;99.90
28767;DHT22;15921;52.034;20.650;2022-07-03T05:30:54;18.70;99.90
28767;DHT22;15921;52.034;20.650;2022-07-03T05:33:20;18.80;99.90
28767;DHT22;15921;52.034;20.650;2022-07-03T05:35:45;18.80;99.90
28767;DHT22;15921;52.034;20.650;2022-07-03T05:38:11;18.80;99.90
28767;DHT22;15921;52.034;20.650;2022-07-03T05:40:37;18.90;99.90
28767;DHT22;15921;52.034;20.650;2022-07-03T05:43:02;19.00;99.90
28767;DHT22;15921;52.034;20.650;2022-07-03T05:45:28;19.00;99.90
28767;DHT22;15921;52.034;20.650;2022-07-03T05:47:53;19.00;99.90
28767;DHT22;15921;52.034;20.650;2022-07-03T05:50:19;19.20;99.90
28767;DHT22;15921;52.034;20.650;2022-07-03T05:52:45;19.20;99.90
28767;DHT22;15921;52.034;20.650;2022-07-03T05:55:10;19.30;99.90
28767;DHT22;15921;52.034;20.650;2022-07-03T05:57:36;19.30;99.90
28767;DHT22;15921;52.034;20.650;2022-07-03T06:00:02;19.40;99.90
28767;DHT22;15921;52.034;20.650;2022-07-03T06:02:28;19.40;99.90
28767;DHT22;15921;52.034;20.650;2022-07-03T06:04:53;19.50;99.90
28767;DHT22;15921;52.034;20.650;2022-07-03T06:07:19;19.60;99.90
28767;DHT22;15921;52.034;20.650;2022-07-03T06:09:45;19.70;99.90
28767;DHT22;15921;52.034;20.650;2022-07-03T06:12:10;19.70;99.90
28767;DHT22;15921;52.034;20.650;2022-07-03T06:14:36;19.80;99.90
28767;DHT22;15921;52.034;20.650;2022-07-03T06:17:02;19.90;99.90
28767;DHT22;15921;52.034;20.650;2022-07-03T06:19:28;19.90;99.90
28767;DHT22;15921;52.034;20.650;2022-07-03T06:21:54;19.90;99.90
28767;DHT22;15921;52.034;20.650;2022-07-03T06:24:19;20.00;99.90
28767;DHT22;15921;52.034;20.650;2022-07-03T06:26:45;20.00;99.90
28767;DHT22;15921;52.034;20.650;2022-07-03T06:29:11;20.10;99.90
28767;DHT22;15921;52.034;20.650;2022-07-03T06:31:36;20.10;99.90
28767;DHT22;15921;52.034;20.650;2022-07-03T06:34:02;20.10;99.90
28767;DHT22;15921;52.034;20.650;2022-07-03T06:36:27;20.20;99.90
28767;DHT22;15921;52.034;20.650;2022-07-03T06:38:53;20.20;99.90
28767;DHT22;15921;52.034;20.650;2022-07-03T06:41:18;20.20;99.90
28767;DHT22;15921;52.034;20.650;2022-07-03T06:43:44;20.20;99.90
28767;DHT22;15921;52.034;20.650;2022-07-03T06:46:10;20.30;99.90
28767;DHT22;15921;52.034;20.650;2022-07-03T06:48:35;20.30;99.90
28767;DHT22;15921;52.034;20.650;2022-07-03T06:51:01;20.30;99.90
28767;DHT22;15921;52.034;20.650;2022-07-03T06:53:26;20.30;99.90
28767;DHT22;15921;52.034;20.650;2022-07-03T06:55:52;20.30;99.90
28767;DHT22;15921;52.034;20.650;2022-07-03T06:58:18;20.30;99.90
28767;DHT22;15921;52.034;20.650;2022-07-03T07:00:43;20.30;99.90
28767;DHT22;15921;52.034;20.650;2022-07-03T07:03:09;20.40;99.90
28767;DHT22;15921;52.034;20.650;2022-07-03T07:05:35;20.50;99.90
28767;DHT22;15921;52.034;20.650;2022-07-03T07:08:00;20.60;99.90
28767;DHT22;15921;52.034;20.650;2022-07-03T07:10:26;20.60;99.90
28767;DHT22;15921;52.034;20.650;2022-07-03T07:12:52;20.60;99.90
28767;DHT22;15921;52.034;20.650;2022-07-03T07:15:17;20.70;99.90
28767;DHT22;15921;52.034;20.650;2022-07-03T07:17:43;20.80;99.90
28767;DHT22;15921;52.034;20.650;2022-07-03T07:20:08;20.90;99.90
28767;DHT22;15921;52.034;20.650;2022-07-03T07:22:34;21.00;99.90
28767;DHT22;15921;52.034;20.650;2022-07-03T07:25:00;21.00;99.90
28767;DHT22;15921;52.034;20.650;2022-07-03T07:27:26;21.10;99.90
28767;DHT22;15921;52.034;20.650;2022-07-03T07:29:51;21.20;99.90
28767;DHT22;15921;52.034;20.650;2022-07-03T07:32:17;21.20;99.90
28767;DHT22;15921;52.034;20.650;2022-07-03T07:34:43;21.30;99.90
28767;DHT22;15921;52.034;20.650;2022-07-03T07:37:08;21.30;99.90
28767;DHT22;15921;52.034;20.650;2022-07-03T07:39:34;21.40;99.90
28767;DHT22;15921;52.034;20.650;2022-07-03T07:41:59;21.40;99.90
28767;DHT22;15921;52.034;20.650;2022-07-03T07:44:25;21.50;99.90
28767;DHT22;15921;52.034;20.650;2022-07-03T07:46:50;21.50;99.90
28767;DHT22;15921;52.034;20.650;2022-07-03T07:49:16;21.50;99.90
28767;DHT22;15921;52.034;20.650;2022-07-03T07:51:42;21.60;99.90
28767;DHT22;15921;52.034;20.650;2022-07-03T07:54:07;21.60;99.90
28767;DHT22;15921;52.034;20.650;2022-07-03T07:56:33;21.50;99.90
28767;DHT22;15921;52.034;20.650;2022-07-03T07:58:59;21.50;99.90
28767;DHT22;15921;52.034;20.650;2022-07-03T08:01:25;21.60;99.90
28767;DHT22;15921;52.034;20.650;2022-07-03T08:04:09;21.60;99.90
28767;DHT22;15921;52.034;20.650;2022-07-03T08:06:53;21.60;99.90
28767;DHT22;15921;52.034;20.650;2022-07-03T08:09:19;21.70;99.90
28767;DHT22;15921;52.034;20.650;2022-07-03T08:11:44;21.80;99.90
28767;DHT22;15921;52.034;20.650;2022-07-03T08:14:10;21.90;99.90
28767;DHT22;15921;52.034;20.650;2022-07-03T08:16:36;21.90;99.90
28767;DHT22;15921;52.034;20.650;2022-07-03T08:19:04;21.90;99.90
28767;DHT22;15921;52.034;20.650;2022-07-03T08:21:30;22.00;99.90
28767;DHT22;15921;52.034;20.650;2022-07-03T08:23:55;22.10;99.90
28767;DHT22;15921;52.034;20.650;2022-07-03T08:26:21;22.10;99.90
28767;DHT22;15921;52.034;20.650;2022-07-03T08:28:46;22.10;99.90
28767;DHT22;15921;52.034;20.650;2022-07-03T08:31:14;22.20;99.90
28767;DHT22;15921;52.034;20.650;2022-07-03T08:33:40;22.30;99.90
28767;DHT22;15921;52.034;20.650;2022-07-03T08:36:06;22.30;99.90
28767;DHT22;15921;52.034;20.650;2022-07-03T08:38:32;22.40;99.90
28767;DHT22;15921;52.034;20.650;2022-07-03T08:41:02;22.40;99.90
28767;DHT22;15921;52.034;20.650;2022-07-03T08:43:28;22.50;99.90
28767;DHT22;15921;52.034;20.650;2022-07-03T08:45:54;22.50;99.90
28767;DHT22;15921;52.034;20.650;2022-07-03T08:48:20;22.60;99.90
28767;DHT22;15921;52.034;20.650;2022-07-03T08:50:47;22.60;99.90
28767;DHT22;15921;52.034;20.650;2022-07-03T08:53:12;22.70;99.90
28767;DHT22;15921;52.034;20.650;2022-07-03T08:55:38;22.80;99.90
28767;DHT22;15921;52.034;20.650;2022-07-03T08:58:04;22.90;99.90
28767;DHT22;15921;52.034;20.650;2022-07-03T09:00:30;22.90;99.90
28767;DHT22;15921;52.034;20.650;2022-07-03T09:02:57;22.80;99.90
28767;DHT22;15921;52.034;20.650;2022-07-03T09:05:24;22.90;99.90
28767;DHT22;15921;52.034;20.650;2022-07-03T09:07:50;23.10;99.90
28767;DHT22;15921;52.034;20.650;2022-07-03T09:10:17;23.20;99.90
28767;DHT22;15921;52.034;20.650;2022-07-03T09:12:47;23.20;96.50
28767;DHT22;15921;52.034;20.650;2022-07-03T09:15:13;23.10;91.50
28767;DHT22;15921;52.034;20.650;2022-07-03T09:17:38;23.00;97.20
28767;DHT22;15921;52.034;20.650;2022-07-03T09:20:05;23.10;98.40
28767;DHT22;15921;52.034;20.650;2022-07-03T09:22:35;23.20;99.90
28767;DHT22;15921;52.034;20.650;2022-07-03T09:27:30;23.30;94.60
28767;DHT22;15921;52.034;20.650;2022-07-03T09:30:00;23.20;97.20
28767;DHT22;15921;52.034;20.650;2022-07-03T09:32:30;23.30;97.90
28767;DHT22;15921;52.034;20.650;2022-07-03T09:35:12;23.30;93.30
28767;DHT22;15921;52.034;20.650;2022-07-03T09:37:38;23.30;90.20
28767;DHT22;15921;52.034;20.650;2022-07-03T09:40:03;23.30;88.50
28767;DHT22;15921;52.034;20.650;2022-07-03T09:42:29;23.20;89.70
28767;DHT22;15921;52.034;20.650;2022-07-03T09:44:55;23.20;92.40
28767;DHT22;15921;52.034;20.650;2022-07-03T09:47:24;23.20;93.30
28767;DHT22;15921;52.034;20.650;2022-07-03T09:50:02;23.30;90.30
28767;DHT22;15921;52.034;20.650;2022-07-03T09:54:56;23.40;95.10
28767;DHT22;15921;52.034;20.650;2022-07-03T09:57:22;23.50;92.50
28767;DHT22;15921;52.034;20.650;2022-07-03T09:59:48;23.50;90.30
28767;DHT22;15921;52.034;20.650;2022-07-03T10:02:14;23.50;94.20
28767;DHT22;15921;52.034;20.650;2022-07-03T10:04:39;23.60;90.30
28767;DHT22;15921;52.034;20.650;2022-07-03T10:07:05;23.70;93.20
28767;DHT22;15921;52.034;20.650;2022-07-03T10:09:32;23.80;86.90
28767;DHT22;15921;52.034;20.650;2022-07-03T10:11:58;23.80;92.20
28767;DHT22;15921;52.034;20.650;2022-07-03T10:14:25;24.00;90.00
28767;DHT22;15921;52.034;20.650;2022-07-03T10:16:51;24.00;79.50
28767;DHT22;15921;52.034;20.650;2022-07-03T10:21:42;23.90;86.80
28767;DHT22;15921;52.034;20.650;2022-07-03T10:24:08;23.90;80.10
28767;DHT22;15921;52.034;20.650;2022-07-03T10:26:34;23.80;85.00
28767;DHT22;15921;52.034;20.650;2022-07-03T10:29:00;23.90;82.70
28767;DHT22;15921;52.034;20.650;2022-07-03T10:31:27;24.10;91.90
28767;DHT22;15921;52.034;20.650;2022-07-03T10:33:53;24.30;90.30
28767;DHT22;15921;52.034;20.650;2022-07-03T10:36:19;24.40;91.20
28767;DHT22;15921;52.034;20.650;2022-07-03T10:38:46;24.50;88.10
28767;DHT22;15921;52.034;20.650;2022-07-03T10:44:05;24.50;84.30
28767;DHT22;15921;52.034;20.650;2022-07-03T10:46:50;24.50;87.90
28767;DHT22;15921;52.034;20.650;2022-07-03T10:49:15;24.60;88.40
28767;DHT22;15921;52.034;20.650;2022-07-03T10:54:13;24.90;91.60
28767;DHT22;15921;52.034;20.650;2022-07-03T11:00:13;25.20;89.00
28767;DHT22;15921;52.034;20.650;2022-07-03T11:15:28;25.40;83.50
28767;DHT22;15921;52.034;20.650;2022-07-03T11:18:07;25.30;79.10
28767;DHT22;15921;52.034;20.650;2022-07-03T11:20:33;25.30;84.10
28767;DHT22;15921;52.034;20.650;2022-07-03T11:25:47;25.30;81.60
28767;DHT22;15921;52.034;20.650;2022-07-03T11:41:14;26.10;75.40
28767;DHT22;15921;52.034;20.650;2022-07-03T11:43:47;26.30;76.40
28767;DHT22;15921;52.034;20.650;2022-07-03T11:46:16;26.50;72.90
28767;DHT22;15921;52.034;20.650;2022-07-03T11:48:42;26.80;73.50
28767;DHT22;15921;52.034;20.650;2022-07-03T11:51:07;26.80;70.60
28767;DHT22;15921;52.034;20.650;2022-07-03T11:53:34;26.90;68.90
28767;DHT22;15921;52.034;20.650;2022-07-03T11:56:04;27.10;71.20
28767;DHT22;15921;52.034;20.650;2022-07-03T11:58:40;27.40;68.30
28767;DHT22;15921;52.034;20.650;2022-07-03T12:01:09;27.70;69.20
28767;DHT22;15921;52.034;20.650;2022-07-03T12:03:35;28.00;65.00
28767;DHT22;15921;52.034;20.650;2022-07-03T12:06:01;28.20;64.20
28767;DHT22;15921;52.034;20.650;2022-07-03T12:08:30;28.30;64.80
28767;DHT22;15921;52.034;20.650;2022-07-03T12:10:57;28.60;64.40
28767;DHT22;15921;52.034;20.650;2022-07-03T12:13:24;29.20;66.00
28767;DHT22;15921;52.034;20.650;2022-07-03T12:15:50;30.40;64.50
28767;DHT22;15921;52.034;20.650;2022-07-03T12:18:16;32.10;58.50
28767;DHT22;15921;52.034;20.650;2022-07-03T12:20:42;33.70;54.60
28767;DHT22;15921;52.034;20.650;2022-07-03T12:23:07;35.30;49.70
28767;DHT22;15921;52.034;20.650;2022-07-03T12:25:37;36.50;48.40
28767;DHT22;15921;52.034;20.650;2022-07-03T12:28:03;37.90;46.40
28767;DHT22;15921;52.034;20.650;2022-07-03T12:30:29;39.20;43.20
28767;DHT22;15921;52.034;20.650;2022-07-03T12:32:55;40.10;41.60
28767;DHT22;15921;52.034;20.650;2022-07-03T12:35:25;41.00;40.20
28767;DHT22;15921;52.034;20.650;2022-07-03T12:37:51;39.40;40.00
28767;DHT22;15921;52.034;20.650;2022-07-03T12:40:16;38.70;43.00
28767;DHT22;15921;52.034;20.650;2022-07-03T12:42:44;39.90;41.30
28767;DHT22;15921;52.034;20.650;2022-07-03T12:45:13;41.10;39.50
28767;DHT22;15921;52.034;20.650;2022-07-03T12:47:39;42.10;38.00
28767;DHT22;15921;52.034;20.650;2022-07-03T12:50:06;42.80;37.30
28767;DHT22;15921;52.034;20.650;2022-07-03T12:52:32;43.20;36.00
28767;DHT22;15921;52.034;20.650;2022-07-03T12:54:58;42.10;37.80
28767;DHT22;15921;52.034;20.650;2022-07-03T12:57:24;43.10;37.10
28767;DHT22;15921;52.034;20.650;2022-07-03T13:00:10;44.60;35.20
28767;DHT22;15921;52.034;20.650;2022-07-03T13:02:39;45.40;33.30
28767;DHT22;15921;52.034;20.650;2022-07-03T13:07:44;46.40;32.60
28767;DHT22;15921;52.034;20.650;2022-07-03T13:10:10;47.00;32.30
28767;DHT22;15921;52.034;20.650;2022-07-03T13:12:44;47.70;31.90
28767;DHT22;15921;52.034;20.650;2022-07-03T13:15:10;48.10;31.60
28767;DHT22;15921;52.034;20.650;2022-07-03T13:18:11;48.10;31.70
28767;DHT22;15921;52.034;20.650;2022-07-03T13:20:29;48.60;32.10
28767;DHT22;15921;52.034;20.650;2022-07-03T13:22:56;49.00;30.60
28767;DHT22;15921;52.034;20.650;2022-07-03T13:25:21;48.90;31.00
28767;DHT22;15921;52.034;20.650;2022-07-03T13:27:47;48.60;30.20
28767;DHT22;15921;52.034;20.650;2022-07-03T13:30:13;48.30;30.20
28767;DHT22;15921;52.034;20.650;2022-07-03T13:32:39;45.80;31.50
28767;DHT22;15921;52.034;20.650;2022-07-03T13:35:05;44.00;33.90
28767;DHT22;15921;52.034;20.650;2022-07-03T13:37:30;44.80;32.60
28767;DHT22;15921;52.034;20.650;2022-07-03T13:39:56;45.60;32.50
28767;DHT22;15921;52.034;20.650;2022-07-03T13:42:22;46.30;32.50
28767;DHT22;15921;52.034;20.650;2022-07-03T13:44:47;46.90;31.60
28767;DHT22;15921;52.034;20.650;2022-07-03T13:47:15;45.20;31.50
28767;DHT22;15921;52.034;20.650;2022-07-03T13:49:41;43.80;34.70
28767;DHT22;15921;52.034;20.650;2022-07-03T13:52:06;43.50;34.90
28767;DHT22;15921;52.034;20.650;2022-07-03T13:54:32;45.60;34.20
28767;DHT22;15921;52.034;20.650;2022-07-03T13:56:58;46.30;33.50
28767;DHT22;15921;52.034;20.650;2022-07-03T13:59:23;45.20;33.00
28767;DHT22;15921;52.034;20.650;2022-07-03T14:01:49;45.60;33.00
28767;DHT22;15921;52.034;20.650;2022-07-03T14:04:14;44.10;34.40
28767;DHT22;15921;52.034;20.650;2022-07-03T14:06:40;41.80;34.50
28767;DHT22;15921;52.034;20.650;2022-07-03T14:09:06;39.80;37.20
28767;DHT22;15921;52.034;20.650;2022-07-03T14:11:31;38.20;39.40
28767;DHT22;15921;52.034;20.650;2022-07-03T14:13:57;36.90;40.60
28767;DHT22;15921;52.034;20.650;2022-07-03T14:16:23;35.90;40.80
28767;DHT22;15921;52.034;20.650;2022-07-03T14:18:48;35.30;43.90
28767;DHT22;15921;52.034;20.650;2022-07-03T14:21:14;34.60;44.10
28767;DHT22;15921;52.034;20.650;2022-07-03T14:23:40;35.10;45.70
28767;DHT22;15921;52.034;20.650;2022-07-03T14:26:05;36.70;43.00
28767;DHT22;15921;52.034;20.650;2022-07-03T14:28:31;36.30;43.10
28767;DHT22;15921;52.034;20.650;2022-07-03T14:31:15;35.80;43.30
28767;DHT22;15921;52.034;20.650;2022-07-03T14:33:53;35.20;45.70
28767;DHT22;15921;52.034;20.650;2022-07-03T14:36:19;37.30;42.50
28767;DHT22;15921;52.034;20.650;2022-07-03T14:38:45;40.10;39.80
28767;DHT22;15921;52.034;20.650;2022-07-03T14:41:11;42.20;37.70
28767;DHT22;15921;52.034;20.650;2022-07-03T14:43:36;41.00;36.90
28767;DHT22;15921;52.034;20.650;2022-07-03T14:46:02;38.90;38.80
28767;DHT22;15921;52.034;20.650;2022-07-03T14:48:28;37.50;40.30
28767;DHT22;15921;52.034;20.650;2022-07-03T14:50:54;36.20;43.90
28767;DHT22;15921;52.034;20.650;2022-07-03T14:53:20;37.00;45.70
28767;DHT22;15921;52.034;20.650;2022-07-03T14:55:45;38.40;42.20
28767;DHT22;15921;52.034;20.650;2022-07-03T15:00:46;40.80;37.50
28767;DHT22;15921;52.034;20.650;2022-07-03T15:03:28;41.90;36.90
28767;DHT22;15921;52.034;20.650;2022-07-03T15:05:55;43.20;35.30
28767;DHT22;15921;52.034;20.650;2022-07-03T15:10:56;44.40;33.80
28767;DHT22;15921;52.034;20.650;2022-07-03T15:13:22;44.90;34.30
28767;DHT22;15921;52.034;20.650;2022-07-03T15:15:49;45.30;34.00
28767;DHT22;15921;52.034;20.650;2022-07-03T15:18:15;45.40;33.70
28767;DHT22;15921;52.034;20.650;2022-07-03T15:20:42;45.00;33.40
28767;DHT22;15921;52.034;20.650;2022-07-03T15:23:08;44.40;33.50
28767;DHT22;15921;52.034;20.650;2022-07-03T15:25:35;43.30;33.80
28767;DHT22;15921;52.034;20.650;2022-07-03T15:28:01;42.10;36.30
28767;DHT22;15921;52.034;20.650;2022-07-03T15:30:27;40.30;37.30
28767;DHT22;15921;52.034;20.650;2022-07-03T15:32:53;38.80;40.30
28767;DHT22;15921;52.034;20.650;2022-07-03T15:35:20;37.80;43.00
28767;DHT22;15921;52.034;20.650;2022-07-03T15:38:00;36.70;44.70
28767;DHT22;15921;52.034;20.650;2022-07-03T15:40:31;36.00;46.00
28767;DHT22;15921;52.034;20.650;2022-07-03T15:53:41;34.00;48.80
28767;DHT22;15921;52.034;20.650;2022-07-03T15:56:07;33.50;49.50
28767;DHT22;15921;52.034;20.650;2022-07-03T15:58:34;33.20;50.00
28767;DHT22;15921;52.034;20.650;2022-07-03T16:01:04;33.10;52.00
28767;DHT22;15921;52.034;20.650;2022-07-03T16:03:53;34.60;50.80
28767;DHT22;15921;52.034;20.650;2022-07-03T16:06:19;36.80;47.80
28767;DHT22;15921;52.034;20.650;2022-07-03T16:08:46;38.40;43.20
28767;DHT22;15921;52.034;20.650;2022-07-03T16:11:12;39.50;41.60
28767;DHT22;15921;52.034;20.650;2022-07-03T16:13:38;40.40;38.30
28767;DHT22;15921;52.034;20.650;2022-07-03T16:16:04;41.10;37.60
28767;DHT22;15921;52.034;20.650;2022-07-03T16:18:31;41.10;36.80
28767;DHT22;15921;52.034;20.650;2022-07-03T16:20:58;39.90;37.70
28767;DHT22;15921;52.034;20.650;2022-07-03T16:23:25;39.00;40.90
28767;DHT22;15921;52.034;20.650;2022-07-03T16:25:52;37.60;42.90
28767;DHT22;15921;52.034;20.650;2022-07-03T16:28:17;36.40;45.10
28767;DHT22;15921;52.034;20.650;2022-07-03T16:30:47;35.40;47.20
28767;DHT22;15921;52.034;20.650;2022-07-03T16:33:13;34.90;48.10
28767;DHT22;15921;52.034;20.650;2022-07-03T16:35:40;34.10;49.70
28767;DHT22;15921;52.034;20.650;2022-07-03T16:38:06;33.30;51.50
28767;DHT22;15921;52.034;20.650;2022-07-03T16:40:33;32.80;53.30